createdAt,value
2017-06-13T03:32:06.761Z,46.60
2017-06-13T03:34:34.393Z,46.70
2017-06-13T03:37:02.455Z,46.80
2017-06-13T03:39:30.868Z,47.20
2017-06-13T03:41:58.531Z,47.10
2017-06-13T03:44:26.295Z,47.80
2017-06-13T03:46:53.945Z,47.80
2017-06-13T03:49:21.633Z,47.70
2017-06-13T03:51:49.280Z,47.60
2017-06-13T03:54:16.946Z,48.70
2017-06-13T03:56:44.580Z,48.30
2017-06-13T03:59:12.648Z,48.30
2017-06-13T04:01:40.308Z,48.30
2017-06-13T04:04:07.958Z,48.40
2017-06-13T04:06:36.537Z,48.00
2017-06-13T04:09:04.955Z,47.70
2017-06-13T04:11:32.670Z,47.70
2017-06-13T04:14:00.310Z,47.50
2017-06-13T04:16:27.976Z,47.20
2017-06-13T04:18:55.613Z,47.40
2017-06-13T04:21:23.284Z,47.80
2017-06-13T04:23:50.945Z,48.00
2017-06-13T04:26:18.934Z,47.70
2017-06-13T04:28:46.683Z,47.70
2017-06-13T04:31:14.307Z,47.30
2017-06-13T04:33:41.974Z,47.20
2017-06-13T04:36:09.627Z,46.90
2017-06-13T04:38:37.302Z,47.10
2017-06-13T04:41:04.941Z,47.40
2017-06-13T04:43:33.720Z,47.70
2017-06-13T04:46:02.125Z,47.60
2017-06-13T04:48:29.892Z,47.50
2017-06-13T04:50:57.590Z,47.80
2017-06-13T04:53:25.239Z,47.50
2017-06-13T04:55:52.897Z,47.50
2017-06-13T04:58:20.549Z,47.30
2017-06-13T05:00:48.185Z,47.60
2017-06-13T05:03:16.594Z,48.20
2017-06-13T05:05:44.638Z,48.10
2017-06-13T05:08:12.312Z,48.20
2017-06-13T05:10:39.974Z,47.90
2017-06-13T05:13:07.752Z,47.80
2017-06-13T05:15:35.424Z,48.00
2017-06-13T05:18:03.080Z,47.90
2017-06-13T05:20:30.722Z,48.30
2017-06-13T05:22:58.570Z,48.70
2017-06-13T05:25:26.977Z,48.00
2017-06-13T05:27:54.608Z,47.90
2017-06-13T05:30:23.033Z,48.50
2017-06-13T05:32:50.669Z,48.40
2017-06-13T05:35:18.335Z,48.60
2017-06-13T05:37:45.999Z,48.60
2017-06-13T05:40:13.670Z,48.20
2017-06-13T05:42:41.310Z,48.50
2017-06-13T05:45:09.360Z,48.80
2017-06-13T05:47:37.782Z,48.50
2017-06-13T05:50:06.172Z,48.40
2017-06-13T05:52:34.024Z,48.90
2017-06-13T05:55:01.689Z,48.30
2017-06-13T05:57:29.364Z,47.70
2017-06-13T05:59:57.000Z,47.40
2017-06-13T06:02:24.715Z,47.50
2017-06-13T06:04:53.089Z,47.00
2017-06-13T06:07:21.079Z,47.50
2017-06-13T06:09:49.499Z,46.20
2017-06-13T06:12:17.157Z,46.70
2017-06-13T06:14:44.898Z,46.30
2017-06-13T06:17:12.543Z,46.00
2017-06-13T06:19:40.318Z,44.60
2017-06-13T06:22:08.741Z,43.90
2017-06-13T06:24:36.397Z,43.90
2017-06-13T06:27:04.040Z,44.30
2017-06-13T06:29:31.699Z,44.70
2017-06-13T06:31:59.385Z,44.50
2017-06-13T06:34:27.414Z,44.30
2017-06-13T06:36:55.846Z,42.90
2017-06-13T06:39:23.506Z,42.90
2017-06-13T06:41:51.289Z,43.50
2017-06-13T06:44:18.915Z,43.50
2017-06-13T06:46:46.686Z,43.10
2017-06-13T06:49:14.336Z,42.90
2017-06-13T06:51:42.037Z,41.70
2017-06-13T06:54:09.692Z,41.40
2017-06-13T06:56:37.371Z,42.00
2017-06-13T06:59:05.087Z,41.40
2017-06-13T07:01:33.156Z,41.60
2017-06-13T07:04:00.799Z,40.60
2017-06-13T07:06:28.441Z,42.50
2017-06-13T07:08:56.439Z,41.70
2017-06-13T07:11:24.082Z,42.10
2017-06-13T07:13:52.699Z,40.50
2017-06-13T07:16:20.958Z,40.50
2017-06-13T07:18:48.619Z,40.40
2017-06-13T07:21:16.307Z,41.00
2017-06-13T07:23:44.352Z,40.80
2017-06-13T07:26:12.000Z,40.80
2017-06-13T07:28:40.527Z,40.50
2017-06-13T07:31:08.520Z,40.50
2017-06-13T07:33:36.161Z,40.80
2017-06-13T07:36:03.807Z,40.10
2017-06-13T07:38:32.260Z,40.50
2017-06-13T07:40:59.908Z,41.00
2017-06-13T07:43:28.317Z,42.60
2017-06-13T07:45:57.332Z,42.60
2017-06-13T07:48:25.040Z,40.00
2017-06-13T07:50:53.282Z,40.60
2017-06-13T07:53:21.272Z,40.20
2017-06-13T07:55:49.016Z,40.40
2017-06-13T07:58:16.762Z,40.80
2017-06-13T08:00:44.789Z,40.60
2017-06-13T08:03:13.293Z,40.80
2017-06-13T08:05:41.074Z,40.80
2017-06-13T08:08:08.791Z,41.20
2017-06-13T08:10:36.529Z,40.60
2017-06-13T08:13:04.436Z,41.80
2017-06-13T08:15:32.145Z,40.00
2017-06-13T08:17:59.817Z,39.20
2017-06-13T08:20:27.466Z,37.10
2017-06-13T08:22:55.558Z,37.80
2017-06-13T08:25:23.308Z,39.30
2017-06-13T08:27:51.067Z,39.40
2017-06-13T08:30:18.749Z,39.20
2017-06-13T08:32:46.472Z,37.90
2017-06-13T08:35:14.248Z,37.60
2017-06-13T08:37:41.905Z,37.90
2017-06-13T08:40:09.939Z,35.70
2017-06-13T08:42:37.598Z,33.90
2017-06-13T08:45:05.478Z,37.40
2017-06-13T08:47:34.278Z,36.60
2017-06-13T08:50:02.038Z,36.50
2017-06-13T08:52:29.738Z,34.20
2017-06-13T08:54:57.788Z,33.80
2017-06-13T08:57:27.122Z,31.20
2017-06-13T08:59:54.879Z,30.50
2017-06-13T09:02:22.902Z,31.20
2017-06-13T09:04:50.532Z,33.00
2017-06-13T09:07:18.184Z,31.40
2017-06-13T09:09:45.861Z,32.30
2017-06-13T09:12:13.756Z,31.20
2017-06-13T09:14:43.276Z,30.10
2017-06-13T09:17:11.794Z,30.00
2017-06-13T09:19:41.486Z,28.90
2017-06-13T09:22:09.389Z,26.40
2017-06-13T09:24:37.521Z,25.70
2017-06-13T09:27:05.179Z,24.80
2017-06-13T09:29:33.243Z,24.90
2017-06-13T09:32:00.994Z,24.60
2017-06-13T09:37:18.140Z,22.70
2017-06-13T09:39:55.016Z,23.90
2017-06-13T09:42:23.934Z,21.90
2017-06-13T09:44:51.755Z,21.80
2017-06-13T09:47:19.440Z,20.70
2017-06-13T09:49:47.388Z,20.40
2017-06-13T09:52:15.934Z,22.90
2017-06-13T09:54:43.825Z,22.80
2017-06-13T09:57:11.594Z,24.00
2017-06-13T09:59:40.145Z,22.70
2017-06-13T10:02:08.288Z,22.60
2017-06-13T10:04:36.125Z,21.30
2017-06-13T10:07:03.918Z,23.00
2017-06-13T10:09:32.720Z,22.70
2017-06-13T10:12:00.892Z,22.40
2017-06-13T10:14:29.820Z,22.40
2017-06-13T10:16:57.697Z,21.00
2017-06-13T10:19:26.179Z,19.60
2017-06-13T10:21:54.713Z,20.10
2017-06-13T10:24:22.474Z,19.60
2017-06-13T10:26:50.471Z,21.40
2017-06-13T10:29:18.131Z,23.70
2017-06-13T10:31:46.197Z,26.30
2017-06-13T10:34:13.846Z,27.30
2017-06-13T10:36:41.807Z,28.20
2017-06-13T10:39:10.223Z,27.70
2017-06-13T10:41:38.709Z,29.20
2017-06-13T10:44:06.495Z,28.70
2017-06-13T10:46:35.392Z,27.60
2017-06-13T10:49:03.043Z,27.60
2017-06-13T10:51:30.841Z,29.80
2017-06-13T10:53:58.814Z,31.60
2017-06-13T10:56:26.477Z,28.90
2017-06-13T10:58:54.405Z,28.90
2017-06-13T11:01:22.088Z,29.30
2017-06-13T11:03:49.754Z,29.90
2017-06-13T11:06:17.428Z,29.50
2017-06-13T11:08:45.104Z,28.70
2017-06-13T11:11:12.784Z,28.70
2017-06-13T11:13:40.462Z,29.90
2017-06-13T11:16:08.167Z,30.00
2017-06-13T11:18:35.833Z,30.40
2017-06-13T11:21:03.472Z,30.80
2017-06-13T11:23:32.246Z,29.20
2017-06-13T11:25:59.909Z,29.10
2017-06-13T11:28:28.324Z,28.80
2017-06-13T11:30:56.383Z,29.10
2017-06-13T11:33:24.070Z,29.00
2017-06-13T11:35:51.744Z,30.20
2017-06-13T11:38:19.785Z,30.00
2017-06-13T11:40:47.547Z,30.40
2017-06-13T11:43:15.208Z,28.90
2017-06-13T11:45:43.212Z,29.30
2017-06-13T11:48:11.068Z,29.10
2017-06-13T11:50:38.735Z,29.50
2017-06-13T11:53:06.771Z,30.50
2017-06-13T11:55:34.418Z,31.60
2017-06-13T11:58:02.869Z,30.40
2017-06-13T12:00:30.871Z,30.30
2017-06-13T12:02:59.284Z,31.10
2017-06-13T12:05:26.927Z,31.00
2017-06-13T12:07:54.980Z,30.40
2017-06-13T12:10:24.160Z,30.60
2017-06-13T12:12:57.095Z,31.40
2017-06-13T12:15:29.077Z,31.40
2017-06-13T12:17:57.224Z,31.30
2017-06-13T12:20:24.870Z,30.50
2017-06-13T12:22:53.279Z,30.40
2017-06-13T12:25:21.276Z,30.40
2017-06-13T12:27:48.921Z,29.80
2017-06-13T12:30:17.760Z,29.20
2017-06-13T12:32:46.554Z,28.40
2017-06-13T12:35:14.955Z,30.50
2017-06-13T12:37:42.641Z,30.50
2017-06-13T12:40:10.689Z,30.10
2017-06-13T12:42:38.373Z,30.70
2017-06-13T12:45:06.038Z,30.40
2017-06-13T12:47:34.062Z,32.20
2017-06-13T12:50:02.483Z,29.90
2017-06-13T12:52:30.250Z,29.80
2017-06-13T12:54:58.364Z,30.20
2017-06-13T12:57:26.028Z,30.00
2017-06-13T12:59:53.672Z,29.80
2017-06-13T13:02:21.690Z,29.80
2017-06-13T13:04:49.360Z,28.90
2017-06-13T13:07:17.007Z,29.50
2017-06-13T13:09:45.049Z,31.30
2017-06-13T13:12:12.685Z,30.60
2017-06-13T13:14:40.327Z,30.80
2017-06-13T13:17:08.286Z,31.40
2017-06-13T13:19:35.952Z,31.20
2017-06-13T13:22:03.609Z,32.10
2017-06-13T13:24:31.656Z,32.40
2017-06-13T13:27:00.076Z,30.80
2017-06-13T13:29:27.732Z,30.70
2017-06-13T13:31:55.792Z,32.40
2017-06-13T13:34:23.464Z,32.50
2017-06-13T13:36:51.112Z,32.20
2017-06-13T13:39:19.177Z,31.10
2017-06-13T13:41:46.918Z,32.00
2017-06-13T13:44:15.385Z,30.80
2017-06-13T13:46:43.228Z,30.70
2017-06-13T13:49:10.885Z,29.80
2017-06-13T13:51:38.549Z,30.40
2017-06-13T13:54:06.207Z,30.50
2017-06-13T13:56:33.884Z,30.70
2017-06-13T13:59:01.639Z,32.60
2017-06-13T14:01:29.564Z,32.10
2017-06-13T14:03:57.251Z,32.40
2017-06-13T14:06:24.896Z,32.40
2017-06-13T14:08:52.541Z,31.40
2017-06-13T14:11:20.969Z,31.90
2017-06-13T14:13:48.627Z,31.90
2017-06-13T14:16:16.269Z,30.20
2017-06-13T14:18:43.956Z,31.10
2017-06-13T14:21:11.703Z,31.90
2017-06-13T14:23:39.730Z,32.00
2017-06-13T14:26:08.167Z,31.60
2017-06-13T14:28:35.813Z,31.60
2017-06-13T14:31:03.920Z,30.80
2017-06-13T14:33:31.590Z,30.00
2017-06-13T14:35:59.277Z,30.50
2017-06-13T14:38:26.933Z,32.20
2017-06-13T14:40:55.466Z,32.40
2017-06-13T14:43:23.114Z,32.30
2017-06-13T14:45:50.806Z,32.30
2017-06-13T14:48:21.559Z,30.90
2017-06-13T14:50:49.311Z,30.60
2017-06-13T14:53:17.012Z,29.70
2017-06-13T14:55:44.659Z,29.60
2017-06-13T14:58:13.310Z,29.90
2017-06-13T15:00:41.127Z,29.90
2017-06-13T15:03:09.205Z,29.40
2017-06-13T15:05:36.875Z,29.90
2017-06-13T15:08:04.520Z,30.30
2017-06-13T15:10:32.504Z,30.50
2017-06-13T15:13:00.170Z,31.60
2017-06-13T15:15:27.836Z,31.50
2017-06-13T15:17:55.930Z,30.10
2017-06-13T15:20:23.678Z,31.10
2017-06-13T15:22:51.344Z,31.90
2017-06-13T15:25:19.316Z,31.80
2017-06-13T15:27:48.187Z,32.40
2017-06-13T15:30:15.852Z,31.90
2017-06-13T15:32:43.849Z,31.70
2017-06-13T15:35:11.524Z,32.60
2017-06-13T15:37:39.208Z,31.50
2017-06-13T15:40:07.211Z,31.50
2017-06-13T15:42:34.990Z,31.20
2017-06-13T15:45:02.642Z,32.90
2017-06-13T15:47:30.730Z,33.10
2017-06-13T15:49:58.370Z,32.30
2017-06-13T15:52:26.174Z,32.20
2017-06-13T15:54:54.365Z,32.50
2017-06-13T15:57:22.147Z,32.30
2017-06-13T15:59:50.579Z,32.30
2017-06-13T16:02:19.177Z,32.20
2017-06-13T16:04:46.827Z,33.20
2017-06-13T16:07:14.472Z,32.80
2017-06-13T16:09:42.547Z,31.40
2017-06-13T16:12:10.241Z,31.10
2017-06-13T16:14:37.964Z,30.60
2017-06-13T16:17:06.136Z,31.30
2017-06-13T16:19:35.618Z,31.80
2017-06-13T16:22:03.497Z,31.90
2017-06-13T16:24:31.477Z,31.10
2017-06-13T16:26:59.127Z,31.20
2017-06-13T16:29:26.782Z,30.20
2017-06-13T16:31:54.764Z,31.50
2017-06-13T16:34:22.410Z,32.00
2017-06-13T16:36:51.704Z,31.70
2017-06-13T16:39:19.972Z,31.00
2017-06-13T16:41:47.609Z,31.90
2017-06-13T16:44:15.277Z,31.80
2017-06-13T16:46:43.302Z,31.60
2017-06-13T16:49:10.980Z,31.90
2017-06-13T16:51:38.633Z,31.10
2017-06-13T16:54:06.673Z,30.50
2017-06-13T16:56:35.100Z,30.40
2017-06-13T16:59:02.776Z,30.40
2017-06-13T17:01:32.524Z,30.50
2017-06-13T17:04:00.743Z,30.90
2017-06-13T17:06:29.100Z,31.00
2017-06-13T17:08:57.169Z,31.60
2017-06-13T17:11:24.825Z,31.40
2017-06-13T17:13:52.465Z,31.10
2017-06-13T17:16:21.367Z,31.60
2017-06-13T17:18:49.023Z,31.50
2017-06-13T17:21:17.443Z,33.30
2017-06-13T17:23:45.908Z,33.30
2017-06-13T17:26:13.558Z,32.60
2017-06-13T17:28:42.518Z,32.30
2017-06-13T17:31:11.330Z,32.70
2017-06-13T17:33:38.974Z,32.70
2017-06-13T17:36:08.702Z,32.80
2017-06-13T17:38:36.930Z,32.80
2017-06-13T17:41:04.713Z,33.30
2017-06-13T17:43:33.973Z,33.70
2017-06-13T17:46:02.537Z,33.60
2017-06-13T17:48:30.207Z,33.50
2017-06-13T17:50:57.882Z,32.90
2017-06-13T17:53:25.864Z,33.40
2017-06-13T17:55:53.520Z,33.00
2017-06-13T17:58:21.175Z,32.80
2017-06-13T18:00:49.219Z,32.50
2017-06-13T18:03:16.886Z,32.20
2017-06-13T18:05:44.535Z,32.20
2017-06-13T18:08:13.315Z,32.20
2017-06-13T18:10:41.787Z,32.90
2017-06-13T18:13:11.007Z,32.70
2017-06-13T18:15:38.699Z,32.70
2017-06-13T18:18:06.358Z,33.40
2017-06-13T18:20:36.219Z,33.00
2017-06-13T18:23:03.922Z,33.20
2017-06-13T18:25:31.984Z,32.90
2017-06-13T18:27:59.657Z,34.10
2017-06-13T18:30:27.324Z,34.00
2017-06-13T18:32:54.997Z,34.30
2017-06-13T18:35:22.688Z,34.00
2017-06-13T18:37:50.372Z,34.10
2017-06-13T18:40:18.785Z,34.60
2017-06-13T18:42:46.947Z,34.60
2017-06-13T18:45:14.608Z,34.70
2017-06-13T18:47:42.262Z,34.80
2017-06-13T18:50:09.933Z,34.70
2017-06-13T18:52:37.615Z,34.70
2017-06-13T18:55:05.266Z,34.80
2017-06-13T18:57:32.914Z,34.90
2017-06-13T19:00:00.598Z,35.10
2017-06-13T19:02:28.257Z,35.30
2017-06-13T19:04:56.317Z,35.20
2017-06-13T19:07:23.970Z,35.40
2017-06-13T19:09:51.627Z,35.40
2017-06-13T19:12:20.071Z,36.00
2017-06-13T19:14:47.871Z,36.00
2017-06-13T19:17:16.312Z,36.40
2017-06-13T19:19:43.976Z,36.30
2017-06-13T19:22:11.672Z,36.80
2017-06-13T19:24:40.120Z,37.20
2017-06-13T19:27:07.835Z,37.20
2017-06-13T19:29:35.626Z,37.30
2017-06-13T19:32:03.294Z,37.30
2017-06-13T19:34:30.991Z,37.50
2017-06-13T19:36:59.432Z,37.70
2017-06-13T19:39:27.105Z,37.70
2017-06-13T19:41:54.754Z,37.90
2017-06-13T19:44:22.801Z,37.90
2017-06-13T19:59:50.548Z,38.10
2017-06-13T20:02:18.237Z,39.70
2017-06-13T20:04:46.001Z,39.10
2017-06-13T20:07:13.705Z,38.80
2017-06-13T20:09:41.378Z,38.80
2017-06-13T20:12:09.871Z,38.90
2017-06-13T20:14:37.589Z,38.80
2017-06-13T20:17:05.504Z,38.90
2017-06-13T20:19:33.797Z,39.10
2017-06-13T20:22:01.535Z,39.50
2017-06-13T20:24:30.957Z,39.30
2017-06-13T20:26:58.643Z,39.20
2017-06-13T20:29:26.324Z,39.30
2017-06-13T20:31:54.244Z,39.30
2017-06-13T20:34:27.636Z,39.40
2017-06-13T20:36:55.429Z,39.50
2017-06-13T20:39:23.142Z,39.50
2017-06-13T20:41:51.691Z,39.40
2017-06-13T20:44:19.361Z,39.60
2017-06-13T20:46:47.109Z,39.70
2017-06-13T20:49:14.774Z,39.80
2017-06-13T20:51:42.524Z,40.00
2017-06-13T20:54:10.325Z,40.20
2017-06-13T20:56:41.855Z,40.40
2017-06-13T20:59:09.828Z,40.40
2017-06-13T21:01:37.713Z,40.40
2017-06-13T21:04:05.590Z,40.50
2017-06-13T21:06:34.344Z,40.40
2017-06-13T21:09:02.300Z,40.40
2017-06-13T21:11:30.633Z,40.40
2017-06-13T21:13:58.368Z,40.30
2017-06-13T21:16:26.018Z,40.10
2017-06-13T21:18:53.699Z,40.20
2017-06-13T21:21:21.349Z,40.20
2017-06-13T21:23:49.022Z,40.30
2017-06-13T21:26:16.675Z,40.40
2017-06-13T21:28:44.374Z,40.30
